Time;durP1;ratioP1;P1;durP2;ratioP2;P2;SDS_P1;SDS_P2;PMS_P1;PMS_P2;Temp;Humidity;BMP_temperature;BMP_pressure;BME280_temperature;BME280_humidity;BME280_pressure;Samples;Min_cycle;Max_cycle;Signal;HPM_P1;HPM_P2
2022/07/19 00:00:20;;;;;;;3.80;2.53;;;19.00;99.90;;;-141.84;49.86;20797.63;5053025;28;20287;-56
2022/07/19 00:02:49;;;;;;;3.90;2.20;;;19.00;99.90;;;-141.84;50.19;20799.66;5040531;28;20218;-59
2022/07/19 00:05:20;;;;;;;2.65;2.25;;;19.00;99.90;;;-141.84;50.24;20789.50;5032964;28;20253;-58
2022/07/19 00:07:48;;;;;;;3.60;2.63;;;19.00;99.90;;;-141.84;50.27;20785.44;5032963;28;20272;-58
2022/07/19 00:10:20;;;;;;;3.83;2.38;;;18.90;99.90;;;-141.84;50.28;20748.84;5032708;28;20206;-57
2022/07/19 00:12:49;;;;;;;4.13;2.42;;;18.90;99.90;;;-141.84;50.19;20801.69;5033207;28;20278;-58
2022/07/19 00:15:17;;;;;;;3.03;2.20;;;18.90;99.90;;;-141.84;49.62;20789.50;5032732;28;20314;-58
2022/07/19 00:17:48;;;;;;;3.72;2.00;;;18.90;99.90;;;-141.84;49.07;20799.66;5032344;28;20333;-57
2022/07/19 00:20:20;;;;;;;3.17;2.08;;;19.00;99.90;;;-141.84;48.76;20807.78;5032689;28;20787;-56
2022/07/19 00:22:49;;;;;;;4.43;2.28;;;19.00;99.90;;;-141.84;48.93;20809.81;5032608;28;20249;-58
2022/07/19 00:25:19;;;;;;;2.47;1.98;;;19.00;99.90;;;-141.84;49.41;20809.81;5049187;28;20292;-60
2022/07/19 00:27:47;;;;;;;2.67;1.90;;;19.10;99.90;;;-141.84;49.66;20801.69;5052632;28;20670;-58
2022/07/19 00:30:15;;;;;;;4.00;2.20;;;19.10;99.90;;;-141.84;49.43;20803.72;5052394;28;20312;-58
2022/07/19 00:32:43;;;;;;;3.00;1.98;;;19.00;99.90;;;-141.84;48.97;20846.41;5052056;28;20257;-56
2022/07/19 00:35:12;;;;;;;3.50;2.00;;;19.10;99.90;;;-141.84;49.13;20834.22;5052228;28;20611;-58
2022/07/19 00:37:40;;;;;;;2.33;2.00;;;19.00;99.90;;;-141.84;49.07;20820.00;5051730;28;20659;-57
2022/07/19 00:40:20;;;;;;;4.18;1.90;;;19.10;99.90;;;-141.84;49.05;20809.81;5052433;28;20224;-58
2022/07/19 00:42:50;;;;;;;2.85;1.92;;;19.10;99.90;;;-141.84;49.45;20858.59;5052589;28;20252;-59
2022/07/19 00:45:19;;;;;;;4.60;1.90;;;19.10;99.90;;;-141.84;49.32;20809.81;5052117;28;20309;-58
2022/07/19 00:47:47;;;;;;;2.95;1.88;;;19.10;99.90;;;-141.84;49.71;20826.09;5051570;28;20771;-59
2022/07/19 00:50:15;;;;;;;3.05;1.98;;;19.10;99.90;;;-141.84;49.67;20834.22;5051941;28;20308;-56
2022/07/19 00:52:50;;;;;;;4.28;2.00;;;19.10;99.90;;;-141.84;50.12;20769.16;5051754;28;20760;-58
2022/07/19 00:55:20;;;;;;;3.72;2.08;;;19.10;99.90;;;-141.84;50.66;20785.44;5051828;28;20560;-55
2022/07/19 00:57:51;;;;;;;3.72;1.90;;;19.00;99.90;;;-141.84;50.69;20777.28;5052288;28;20262;-55
2022/07/19 01:00:19;;;;;;;2.78;1.92;;;19.00;99.90;;;-141.84;51.38;20738.66;5051814;28;20637;-58
2022/07/19 01:02:48;;;;;;;2.25;1.80;;;18.90;99.90;;;-141.84;51.28;20769.16;5039488;28;20800;-58
2022/07/19 01:05:17;;;;;;;2.55;1.77;;;18.90;99.90;;;-141.84;51.35;20742.75;5031947;28;20268;-57
2022/07/19 01:07:46;;;;;;;2.72;1.92;;;18.80;99.90;;;-141.84;51.47;20726.47;5031632;28;20720;-59
2022/07/19 01:10:16;;;;;;;3.33;2.10;;;18.80;99.90;;;-141.84;52.07;20748.84;5031697;28;20208;-55
2022/07/19 01:12:45;;;;;;;3.03;2.05;;;18.70;99.90;;;-141.84;52.06;20720.38;5032165;28;20293;-58
2022/07/19 01:15:18;;;;;;;3.80;2.17;;;18.70;99.90;;;-141.84;52.49;20702.09;5031707;28;20230;-58
2022/07/19 01:17:48;;;;;;;3.17;1.77;;;18.70;99.90;;;-141.84;52.99;20718.34;5031410;28;20237;-56
2022/07/19 01:20:17;;;;;;;3.70;1.98;;;18.60;99.90;;;-141.84;53.41;20702.09;5031487;28;20257;-58
2022/07/19 01:22:47;;;;;;;5.35;2.20;;;18.60;99.90;;;-141.84;53.39;20655.31;5031555;28;20226;-58
2022/07/19 01:25:16;;;;;;;3.00;1.92;;;18.50;99.90;;;-141.84;53.59;20681.75;5047818;28;20212;-58
2022/07/19 01:27:49;;;;;;;5.45;2.20;;;18.50;99.90;;;-141.84;53.53;20651.25;5051444;28;20292;-56
2022/07/19 01:30:21;;;;;;;5.25;2.15;;;18.40;99.90;;;-141.84;53.45;20653.28;5051295;28;20396;-58
2022/07/19 01:32:50;;;;;;;4.15;2.00;;;18.50;99.90;;;-141.84;53.29;20677.69;5050810;28;20784;-60
2022/07/19 01:35:19;;;;;;;2.63;1.92;;;18.40;99.90;;;-141.84;53.16;20744.78;5051025;28;20246;-59
2022/07/19 01:37:49;;;;;;;2.00;1.80;;;18.50;99.90;;;-141.84;53.72;20667.53;5051416;28;20235;-58
2022/07/19 01:40:18;;;;;;;4.85;2.35;;;18.40;99.90;;;-141.84;53.70;20718.34;5051451;28;20276;-56
2022/07/19 01:42:49;;;;;;;2.63;2.30;;;18.40;99.90;;;-141.84;53.63;20649.22;5050980;28;20768;-56
2022/07/19 01:45:17;;;;;;;3.40;1.92;;;18.40;99.90;;;-141.84;53.56;20679.72;5051056;28;20260;-56
2022/07/19 01:47:46;;;;;;;2.65;2.03;;;18.40;99.90;;;-141.84;53.33;20693.94;5050649;28;20239;-57
2022/07/19 01:50:17;;;;;;;4.05;1.73;;;18.40;99.90;;;-141.84;53.35;20693.94;5050204;28;20667;-56
2022/07/19 01:52:48;;;;;;;3.30;2.03;;;18.40;99.90;;;-141.84;53.43;20622.81;5050668;28;20738;-59
2022/07/19 01:55:19;;;;;;;3.08;2.15;;;18.40;99.90;;;-141.84;53.49;20679.72;5050983;28;20860;-57
2022/07/19 01:57:47;;;;;;;3.40;2.03;;;18.40;99.90;;;-141.84;53.52;20687.84;5051127;28;20645;-55
2022/07/19 02:00:16;;;;;;;5.57;2.03;;;18.40;99.90;;;-141.84;54.08;20641.09;5050816;28;20658;-57
2022/07/19 02:02:44;;;;;;;3.30;2.20;;;18.30;99.90;;;-141.84;54.19;20635.00;5038835;28;20665;-60
2022/07/19 02:05:13;;;;;;;3.45;2.20;;;18.30;99.90;;;-141.84;54.46;20671.59;5030612;28;20799;-57
2022/07/19 02:07:43;;;;;;;3.13;2.05;;;18.30;99.90;;;-141.84;54.97;20639.06;5030751;28;20280;-56
2022/07/19 02:10:13;;;;;;;4.00;2.05;;;18.30;99.90;;;-141.84;55.35;20622.81;5030844;28;20206;-56
2022/07/19 02:12:41;;;;;;;5.70;2.30;;;18.20;99.90;;;-141.84;55.59;20624.84;5030735;28;20248;-57
2022/07/19 02:15:09;;;;;;;4.53;2.00;;;18.20;99.90;;;-141.84;55.63;20588.25;5030567;28;20253;-57
2022/07/19 02:17:38;;;;;;;2.65;2.00;;;18.10;99.90;;;-141.84;55.50;20641.09;5030485;28;20228;-59
2022/07/19 02:20:08;;;;;;;2.78;2.10;;;18.10;99.90;;;-141.84;55.66;20608.56;5030716;28;20226;-57
2022/07/19 02:22:36;;;;;;;3.58;2.20;;;18.10;99.90;;;-141.84;55.56;20624.84;5030406;28;20712;-57
2022/07/19 02:25:05;;;;;;;4.35;2.38;;;18.10;99.90;;;-141.84;55.54;20590.28;5045122;28;20259;-58
2022/07/19 02:27:35;;;;;;;4.70;2.33;;;18.10;99.90;;;-141.84;55.73;20584.19;5050888;28;20205;-58
2022/07/19 02:30:05;;;;;;;3.72;2.30;;;18.10;99.90;;;-141.84;55.87;20590.28;5050120;28;20716;-56
2022/07/19 02:32:33;;;;;;;4.22;2.28;;;18.10;99.90;;;-141.84;56.11;20586.22;5050036;28;20584;-57
2022/07/19 02:35:01;;;;;;;3.95;2.38;;;18.00;99.90;;;-141.84;56.08;20586.22;5050046;28;20252;-58
2022/07/19 02:37:29;;;;;;;2.35;2.10;;;18.00;99.90;;;-141.84;56.04;20600.44;5050382;28;20235;-58
2022/07/19 02:39:57;;;;;;;3.35;1.92;;;18.00;99.90;;;-141.84;55.53;20594.34;5050567;28;20209;-56
2022/07/19 02:42:25;;;;;;;5.00;2.50;;;18.00;99.90;;;-141.84;55.51;20606.53;5050031;28;20321;-58
2022/07/19 02:44:55;;;;;;;3.63;2.17;;;18.00;99.90;;;-141.84;55.53;20576.03;5050032;28;20718;-56
2022/07/19 02:47:23;;;;;;;4.53;2.45;;;17.90;99.90;;;-141.84;55.99;20563.84;5050091;28;20665;-57
2022/07/19 02:49:51;;;;;;;2.30;2.10;;;17.90;99.90;;;-141.84;56.15;20569.94;5049839;28;20667;-57
2022/07/19 02:52:20;;;;;;;5.70;2.22;;;17.90;99.90;;;-141.84;56.31;20549.63;5050199;28;20292;-55
2022/07/19 02:54:48;;;;;;;2.78;2.00;;;17.80;99.90;;;-141.84;56.31;20551.66;5050582;28;20288;-57
2022/07/19 02:57:16;;;;;;;3.67;2.25;;;17.80;99.90;;;-141.84;56.44;20559.78;5049846;28;20229;-57
2022/07/19 02:59:44;;;;;;;3.53;2.25;;;17.80;99.90;;;-141.84;56.45;20555.72;5049771;28;20786;-58
2022/07/19 03:02:13;;;;;;;6.85;2.40;;;17.80;99.90;;;-141.84;56.11;20559.78;5045865;28;20221;-57
2022/07/19 03:04:42;;;;;;;5.20;2.35;;;17.80;99.90;;;-141.84;56.41;20547.59;5034076;28;20227;-57
2022/07/19 03:07:10;;;;;;;3.67;2.20;;;17.80;99.90;;;-141.84;56.15;20561.81;5033847;28;20667;-55
2022/07/19 03:09:39;;;;;;;3.95;2.30;;;17.80;99.90;;;-141.84;56.11;20584.19;5034366;28;20233;-57
2022/07/19 03:12:07;;;;;;;4.68;2.40;;;17.80;99.90;;;-141.84;55.73;20563.84;5033748;28;20226;-57
2022/07/19 03:14:35;;;;;;;5.03;2.50;;;17.90;99.90;;;-141.84;55.88;20555.72;5033927;28;20305;-57
2022/07/19 03:17:03;;;;;;;4.13;2.20;;;17.90;99.90;;;-141.84;55.60;20567.91;5033542;28;20750;-57
2022/07/19 03:19:33;;;;;;;6.03;2.70;;;17.90;99.90;;;-141.84;54.94;20647.19;5033677;28;20230;-57
2022/07/19 03:22:01;;;;;;;4.70;2.30;;;18.00;99.90;;;-141.84;55.00;20586.22;5034019;28;20637;-58
2022/07/19 03:24:29;;;;;;;3.78;2.50;;;18.00;99.90;;;-141.84;55.27;20635.00;5043700;28;20217;-58
2022/07/19 03:26:58;;;;;;;4.65;2.65;;;18.00;99.90;;;-141.84;54.86;20578.09;5053388;28;20629;-56
2022/07/19 03:29:26;;;;;;;2.67;2.30;;;18.00;99.90;;;-141.84;55.31;20610.59;5053287;28;20309;-56
2022/07/19 03:31:58;;;;;;;2.15;1.95;;;18.00;99.90;;;-141.84;55.59;20553.69;5053311;28;20231;-58
2022/07/19 03:34:28;;;;;;;3.90;2.40;;;18.00;99.90;;;-141.84;55.58;20584.19;5053246;28;20723;-58
2022/07/19 03:36:58;;;;;;;4.32;2.63;;;18.00;99.90;;;-141.84;55.18;20563.84;5053523;28;20224;-57
2022/07/19 03:39:26;;;;;;;3.38;2.38;;;18.00;99.90;;;-141.84;54.76;20576.03;5052933;28;20248;-56
2022/07/19 03:41:54;;;;;;;2.78;2.40;;;18.00;99.90;;;-141.84;54.73;20620.78;5053114;28;20441;-57
2022/07/19 03:44:27;;;;;;;4.05;2.20;;;18.00;99.90;;;-141.84;54.76;20571.97;5053167;28;20300;-56
2022/07/19 03:46:56;;;;;;;3.88;2.47;;;18.00;99.90;;;-141.84;54.82;20590.28;5052988;28;20256;-57
2022/07/19 03:49:24;;;;;;;5.70;2.38;;;18.10;99.90;;;-141.84;54.49;20628.91;5053226;28;20217;-56
2022/07/19 03:51:52;;;;;;;2.53;2.33;;;18.10;99.90;;;-141.84;54.50;20616.69;5053835;28;20245;-58
2022/07/19 03:54:22;;;;;;;2.90;2.20;;;18.10;99.90;;;-141.84;53.97;20635.00;5052755;28;20841;-56
2022/07/19 03:56:50;;;;;;;4.60;2.50;;;18.20;99.90;;;-141.84;53.69;20695.97;5052813;28;20312;-58
2022/07/19 03:59:18;;;;;;;2.42;2.22;;;18.20;99.90;;;-141.84;54.16;20683.78;5052841;28;20724;-57
2022/07/19 04:01:46;;;;;;;3.33;2.17;;;18.20;99.90;;;-141.84;54.23;20645.16;5049157;28;20297;-57
2022/07/19 04:04:15;;;;;;;2.92;2.30;;;18.20;99.90;;;-141.84;54.45;20624.84;5032846;28;20206;-58
2022/07/19 04:06:43;;;;;;;4.03;2.42;;;18.30;99.90;;;-141.84;54.16;20618.72;5033241;28;20217;-58
2022/07/19 04:09:12;;;;;;;2.72;2.08;;;18.30;99.90;;;-141.84;54.16;20653.28;5032908;28;20226;-56
2022/07/19 04:11:41;;;;;;;3.22;2.22;;;18.30;99.90;;;-141.84;54.13;20663.47;5032683;28;20236;-57
2022/07/19 04:14:11;;;;;;;6.85;2.63;;;18.30;99.90;;;-141.84;53.68;20651.25;5032157;28;20226;-56
2022/07/19 04:16:39;;;;;;;4.95;2.90;;;18.30;99.90;;;-141.84;53.41;20667.53;5032560;28;20263;-58
2022/07/19 04:19:08;;;;;;;3.33;2.40;;;18.40;99.90;;;-141.84;53.62;20647.19;5032658;28;20226;-57
2022/07/19 04:21:36;;;;;;;3.53;2.40;;;18.40;99.90;;;-141.84;53.45;20667.53;5033263;28;20205;-57
2022/07/19 04:24:05;;;;;;;3.88;2.42;;;18.50;99.90;;;-141.84;52.14;20728.50;5038912;28;20298;-56
2022/07/19 04:26:38;;;;;;;3.78;2.50;;;18.50;99.90;;;-141.84;51.93;20761.03;5052182;28;20222;-56
2022/07/19 04:29:08;;;;;;;3.17;2.10;;;18.70;99.90;;;-141.84;52.41;20730.53;5052128;28;20767;-58
2022/07/19 04:31:36;;;;;;;3.58;2.33;;;18.70;99.90;;;-141.84;52.52;20742.75;5051974;28;20241;-55
2022/07/19 04:34:05;;;;;;;2.60;2.08;;;18.70;99.90;;;-141.84;52.02;20736.63;5052440;28;20201;-56
2022/07/19 04:36:33;;;;;;;4.38;2.72;;;18.80;99.90;;;-141.84;51.82;20791.53;5052355;28;20222;-56
2022/07/19 04:39:01;;;;;;;4.13;2.65;;;18.90;99.90;;;-141.84;51.68;20750.88;5051924;28;20275;-57
2022/07/19 04:41:30;;;;;;;3.80;2.40;;;18.90;99.90;;;-141.84;51.35;20817.94;5051991;28;20225;-56
2022/07/19 04:43:58;;;;;;;3.10;2.38;;;18.90;99.90;;;-141.84;51.78;20777.28;5052074;28;20387;-59
2022/07/19 04:46:27;;;;;;;6.15;2.58;;;19.00;99.90;;;-141.84;51.97;20775.25;5051920;28;20221;-57
2022/07/19 04:48:56;;;;;;;2.78;2.30;;;19.10;99.90;;;-141.84;50.81;20803.72;5052456;28;20247;-57
2022/07/19 04:51:24;;;;;;;3.22;2.10;;;19.20;99.90;;;-141.84;50.59;20809.81;5031853;28;20253;-57
2022/07/19 04:53:52;;;;;;;4.40;2.65;;;19.30;99.90;;;-141.84;50.24;20846.41;5036514;28;20225;-56
2022/07/19 04:56:20;;;;;;;4.15;2.30;;;19.40;99.90;;;-141.84;49.43;20899.28;5051606;28;20221;-56
2022/07/19 04:58:48;;;;;;;2.92;2.28;;;19.60;99.90;;;-141.84;48.43;20960.25;5051877;28;20233;-55
2022/07/19 05:01:16;;;;;;;2.95;2.00;;;19.80;99.90;;;-141.84;46.04;21244.88;5051735;28;20292;-58
2022/07/19 05:03:46;;;;;;;6.03;2.55;;;20.70;99.90;;;-141.84;39.40;21818.25;5032723;28;20212;-57
2022/07/19 05:06:14;;;;;;;2.20;1.90;;;22.20;99.90;;;-141.84;36.80;22212.75;5031486;28;20230;-58
2022/07/19 05:08:42;;;;;;;3.60;2.47;;;23.80;99.90;;;-141.84;33.67;22643.91;5031575;28;20641;-59
2022/07/19 05:11:10;;;;;;;3.05;2.33;;;25.00;99.90;;;-141.84;31.79;23040.53;5031619;28;20316;-58
2022/07/19 05:13:39;;;;;;;6.15;2.50;;;26.40;99.90;;;-141.84;30.86;23252.06;5031693;28;20313;-58
2022/07/19 05:16:07;;;;;;;5.43;2.75;;;27.00;99.90;;;-141.84;29.82;23473.81;5031588;28;20202;-58
2022/07/19 05:18:36;;;;;;;3.78;2.38;;;27.50;99.90;;;-141.84;29.82;23459.56;5032232;28;20256;-57
2022/07/19 05:21:06;;;;;;;4.88;2.50;;;27.50;99.90;;;-141.84;29.60;23475.84;5031351;28;20272;-59
2022/07/19 05:23:35;;;;;;;4.22;2.45;;;27.80;99.90;;;-141.84;29.59;23559.25;5033590;28;20257;-57
2022/07/19 05:26:03;;;;;;;4.13;2.20;;;28.50;99.90;;;-141.84;29.38;23555.19;5050605;28;20603;-59
2022/07/19 05:28:31;;;;;;;3.08;2.50;;;28.60;99.90;;;-141.84;29.11;23652.81;5050794;28;20699;-59
2022/07/19 05:31:04;;;;;;;2.75;2.38;;;28.80;99.90;;;-141.84;28.71;23555.19;5051285;28;20532;-58
2022/07/19 05:33:33;;;;;;;4.00;2.58;;;28.30;99.90;;;-141.84;29.25;23512.44;5051839;28;20197;-57
2022/07/19 05:36:01;;;;;;;6.10;2.83;;;27.60;99.90;;;-141.84;29.13;23380.22;5050800;28;20233;-58
2022/07/19 05:38:34;;;;;;;3.08;2.50;;;27.20;99.90;;;-141.84;30.62;23038.50;5051261;28;20312;-56
2022/07/19 05:41:02;;;;;;;5.53;2.50;;;27.10;99.90;;;-141.84;32.60;22586.97;5051111;28;20279;-60
2022/07/19 05:43:30;;;;;;;6.20;2.80;;;26.40;99.90;;;-141.84;33.84;22326.66;5051048;28;20303;-57
2022/07/19 05:45:59;;;;;;;7.10;2.60;;;25.80;99.90;;;-141.84;34.84;22208.69;5051549;28;20201;-56
2022/07/19 05:48:27;;;;;;;6.28;2.60;;;25.60;99.90;;;-141.84;35.68;22060.25;5050858;28;20253;-56
2022/07/19 05:50:55;;;;;;;5.63;2.65;;;25.10;99.90;;;-141.84;36.25;21999.25;5050909;28;20247;-56
2022/07/19 05:53:23;;;;;;;5.45;2.75;;;24.60;99.90;;;-141.84;36.64;21909.75;5050678;28;20312;-58
2022/07/19 05:55:53;;;;;;;4.97;2.63;;;24.40;99.90;;;-141.84;37.20;21889.44;5050992;28;20233;-58
2022/07/19 05:58:22;;;;;;;6.70;2.53;;;24.30;99.90;;;-141.84;37.16;21893.50;5050580;28;20213;-58
2022/07/19 06:03:36;;;;;;;5.93;2.92;;;24.20;99.90;;;-141.84;37.53;21844.69;5032587;28;20277;-57
2022/07/19 06:06:04;;;;;;;6.07;2.30;;;24.30;99.90;;;-141.84;37.48;21834.53;5030755;28;20230;-58
2022/07/19 06:08:33;;;;;;;7.55;2.50;;;24.30;99.90;;;-141.84;37.47;21856.91;5030497;28;20233;-59
2022/07/19 06:11:02;;;;;;;7.88;3.10;;;24.30;99.90;;;-141.84;37.83;21826.41;5030656;28;20233;-56
2022/07/19 06:13:35;;;;;;;7.40;2.35;;;24.30;99.90;;;-141.84;37.83;21838.59;5030540;28;20566;-57
2022/07/19 06:16:05;;;;;;;3.08;2.45;;;24.30;99.90;;;-141.84;37.64;21856.91;5030815;28;20619;-58
2022/07/19 06:18:35;;;;;;;3.33;2.30;;;24.50;99.90;;;-141.84;37.73;21863.00;5031071;28;20202;-58
2022/07/19 06:21:07;;;;;;;3.63;2.95;;;24.30;99.90;;;-141.84;37.67;21879.25;5030291;28;20234;-58
2022/07/19 06:23:36;;;;;;;6.03;2.70;;;24.40;99.90;;;-141.84;37.58;21869.09;5032561;28;20228;-59
2022/07/19 06:26:07;;;;;;;4.57;2.95;;;24.60;99.90;;;-141.84;37.04;21926.03;5049988;28;20304;-57
2022/07/19 06:28:36;;;;;;;4.43;2.65;;;24.60;99.90;;;-141.84;37.50;21893.50;5050277;28;20225;-58
2022/07/19 06:31:08;;;;;;;5.13;2.60;;;24.70;99.90;;;-141.84;36.97;21958.56;5050384;28;20177;-58
2022/07/19 06:33:39;;;;;;;4.72;2.60;;;24.80;99.90;;;-141.84;37.40;21970.78;5050964;28;20216;-58
2022/07/19 06:36:08;;;;;;;6.85;2.60;;;25.00;99.90;;;-141.84;37.09;21974.84;5052932;28;20318;-58
2022/07/19 06:38:36;;;;;;;3.58;2.55;;;25.10;99.90;;;-141.84;37.07;22007.38;5056692;28;20656;-60
2022/07/19 06:41:08;;;;;;;3.78;2.58;;;25.20;99.90;;;-141.84;36.88;22029.75;5056830;28;20259;-56
2022/07/19 06:43:36;;;;;;;5.97;3.00;;;25.30;99.90;;;-141.84;36.84;21997.19;5056882;28;20231;-58
2022/07/19 06:46:05;;;;;;;5.88;2.53;;;25.40;99.90;;;-141.84;37.17;22050.06;5056669;28;20211;-57
2022/07/19 06:48:34;;;;;;;7.35;2.90;;;25.40;99.90;;;-141.84;37.45;22037.88;5057264;28;20208;-58
2022/07/19 06:51:02;;;;;;;5.10;2.78;;;25.50;99.90;;;-141.84;36.94;22066.34;5056605;28;20221;-57
2022/07/19 06:53:30;;;;;;;7.60;2.80;;;25.60;99.90;;;-141.84;37.16;22062.28;5056493;28;20256;-57
2022/07/19 06:55:58;;;;;;;6.65;2.75;;;25.60;99.90;;;-141.84;36.94;22129.38;5056925;28;20338;-60
2022/07/19 06:58:29;;;;;;;4.95;3.25;;;25.70;99.90;;;-141.84;36.32;22135.47;5056794;28;20398;-59
2022/07/19 07:00:58;;;;;;;6.50;2.67;;;25.80;99.90;;;-141.84;36.32;22123.28;5057411;28;20201;-56
2022/07/19 07:03:26;;;;;;;5.93;2.92;;;25.90;99.90;;;-141.84;36.37;22123.28;5039353;28;20222;-59
2022/07/19 07:05:54;;;;;;;7.07;2.80;;;25.90;99.90;;;-141.84;36.44;22161.91;5036832;28;20221;-62
2022/07/19 07:08:22;;;;;;;5.55;2.72;;;26.00;99.90;;;-141.84;36.34;22111.09;5036728;28;20264;-60
2022/07/19 07:10:50;;;;;;;65.82;9.88;;;25.90;99.90;;;-141.84;36.16;22145.66;5036763;28;20233;-61
2022/07/19 07:13:18;;;;;;;5.13;3.17;;;25.90;99.90;;;-141.84;36.36;22135.47;5036738;28;20198;-62
2022/07/19 07:15:48;;;;;;;9.55;3.55;;;25.90;99.90;;;-141.84;36.41;22135.47;5037179;28;20767;-61
2022/07/19 07:18:16;;;;;;;14.05;4.10;;;26.00;99.90;;;-141.84;35.57;22196.50;5036430;28;20236;-61
2022/07/19 07:20:44;;;;;;;33.92;6.82;;;26.00;99.90;;;-141.84;35.85;22168.03;5041379;28;20335;-60
2022/07/19 07:23:12;;;;;;;4.93;2.67;;;26.10;99.90;;;-141.84;35.38;22206.66;5056475;28;20263;-61
2022/07/19 07:25:40;;;;;;;7.30;3.03;;;26.20;99.90;;;-141.84;35.08;22224.97;5056506;28;20221;-61
2022/07/19 07:28:09;;;;;;;7.97;2.90;;;26.20;99.90;;;-141.84;34.51;22269.69;5056616;28;20331;-60
2022/07/19 07:30:37;;;;;;;4.63;2.67;;;26.20;99.90;;;-141.84;34.15;22322.56;5056725;28;20567;-61
2022/07/19 07:33:06;;;;;;;7.28;3.17;;;26.30;99.90;;;-141.84;34.25;22285.97;5056045;28;20307;-60
2022/07/19 07:35:34;;;;;;;8.32;2.95;;;26.40;99.90;;;-141.84;34.44;22279.88;5056346;28;20227;-62
2022/07/19 07:38:02;;;;;;;9.48;3.22;;;26.50;99.90;;;-141.84;34.29;22294.09;5056141;28;20605;-60
2022/07/19 07:40:31;;;;;;;6.15;2.72;;;26.50;99.90;;;-141.84;34.00;22310.38;5056722;28;20235;-61
2022/07/19 07:42:59;;;;;;;9.60;2.80;;;26.50;99.90;;;-141.84;33.85;22389.69;5056933;28;20209;-60
2022/07/19 07:45:27;;;;;;;5.65;3.00;;;26.70;99.90;;;-141.84;32.85;22591.03;5056906;28;20255;-61
2022/07/19 07:47:56;;;;;;;5.57;3.00;;;27.10;99.90;;;-141.84;32.40;22643.91;5053394;28;20229;-60
2022/07/19 07:50:25;;;;;;;6.50;3.33;;;27.40;99.90;;;-141.84;32.48;22595.09;5052988;28;20271;-60
2022/07/19 07:52:53;;;;;;;5.05;2.85;;;27.50;99.90;;;-141.84;32.73;22485.28;5053152;28;20326;-60
2022/07/19 07:55:21;;;;;;;8.00;2.75;;;27.30;99.90;;;-141.84;32.96;22493.41;5052982;28;20205;-60
2022/07/19 07:57:55;;;;;;;5.18;3.03;;;27.20;99.90;;;-141.84;33.64;22471.03;5053661;28;20324;-59
2022/07/19 08:00:23;;;;;;;7.80;2.90;;;27.10;99.90;;;-141.84;32.45;22430.38;5053018;28;20221;-59
2022/07/19 08:02:51;;;;;;;4.28;3.25;;;27.10;99.90;;;-141.84;32.77;22444.59;5040165;28;20234;-60
2022/07/19 08:05:22;;;;;;;7.35;2.90;;;27.10;99.90;;;-141.84;33.21;22448.66;5032860;28;20234;-60
2022/07/19 08:07:53;;;;;;;6.50;3.15;;;27.10;99.90;;;-141.84;32.81;22416.13;5033069;28;20309;-59
2022/07/19 08:10:24;;;;;;;6.65;2.85;;;27.10;99.90;;;-141.84;32.64;22458.84;5033080;28;20194;-60
2022/07/19 08:12:53;;;;;;;4.65;2.83;;;27.00;99.90;;;-141.84;32.09;22485.28;5033513;28;20186;-60
2022/07/19 08:15:21;;;;;;;4.57;2.45;;;27.10;99.90;;;-141.84;31.90;22469.00;5032664;28;20245;-59
2022/07/19 08:17:50;;;;;;;7.18;3.00;;;27.10;99.90;;;-141.84;31.20;22507.66;5044603;28;20249;-60
2022/07/19 08:20:18;;;;;;;5.63;2.42;;;27.20;99.90;;;-141.84;31.50;22495.44;5052476;28;20251;-61
2022/07/19 08:22:46;;;;;;;5.50;2.80;;;27.20;99.90;;;-141.84;31.69;22507.66;5052745;28;20627;-61
2022/07/19 08:25:16;;;;;;;4.47;2.60;;;27.20;99.90;;;-141.84;31.31;22525.94;5052487;28;20216;-59
2022/07/19 08:27:45;;;;;;;3.85;2.70;;;27.30;99.90;;;-141.84;31.35;22544.25;5052975;28;20239;-59
2022/07/19 08:30:14;;;;;;;5.10;2.78;;;27.40;99.90;;;-141.84;30.67;22597.13;5052282;28;20221;-60
2022/07/19 08:32:42;;;;;;;4.68;2.80;;;27.40;99.90;;;-141.84;30.83;22615.44;5052288;28;20229;-59
2022/07/19 08:35:11;;;;;;;5.40;2.50;;;27.40;99.90;;;-141.84;31.28;22599.16;5052202;28;20225;-60
2022/07/19 08:37:40;;;;;;;2.90;2.60;;;27.50;99.90;;;-141.84;31.26;22603.22;5052419;28;20476;-59
2022/07/19 08:40:10;;;;;;;3.20;2.53;;;27.50;99.90;;;-141.84;31.18;22629.66;5052164;28;20205;-59
2022/07/19 08:42:42;;;;;;;4.88;2.63;;;27.60;99.90;;;-141.84;30.94;22639.84;5052726;28;20197;-62
2022/07/19 08:45:12;;;;;;;5.57;2.80;;;27.70;99.90;;;-141.84;31.06;22631.72;5051975;28;20224;-59
2022/07/19 08:47:42;;;;;;;4.75;2.70;;;27.70;99.90;;;-141.84;31.08;22656.13;5052018;28;20229;-60
2022/07/19 08:50:12;;;;;;;4.78;2.80;;;27.80;99.90;;;-141.84;30.86;22668.31;5051919;28;20243;-59
2022/07/19 08:52:41;;;;;;;6.25;2.97;;;27.90;99.90;;;-141.84;29.91;22741.53;5052123;28;20298;-60
2022/07/19 08:55:10;;;;;;;3.72;2.60;;;27.90;99.90;;;-141.84;30.15;22749.66;5051779;28;20205;-60
2022/07/19 08:57:57;;;;;;;6.30;2.83;;;27.90;99.90;;;-141.84;30.08;22735.44;5052479;28;20244;-60
2022/07/19 09:00:26;;;;;;;5.68;2.67;;;28.00;99.90;;;-141.84;29.85;22778.16;5051414;28;20229;-61
2022/07/19 09:02:57;;;;;;;4.10;2.40;;;28.10;99.90;;;-141.84;29.36;22772.03;5038569;28;20222;-60
2022/07/19 09:05:26;;;;;;;2.78;2.50;;;28.20;99.90;;;-141.84;29.82;22829.00;5031618;28;20719;-60
2022/07/19 09:08:07;;;;;;;5.07;2.60;;;28.30;99.90;;;-141.84;29.29;22910.34;5031926;28;20320;-61
2022/07/19 09:10:38;;;;;;;3.78;2.40;;;28.60;99.90;;;-141.84;28.90;22924.59;5031741;28;20228;-59
2022/07/19 09:13:11;;;;;;;2.72;2.42;;;28.60;99.40;;;-141.84;29.19;22861.53;5035605;28;20562;-60
2022/07/19 09:15:49;;;;;;;4.07;2.50;;;28.60;99.50;;;-141.84;29.31;22839.16;5052475;28;20220;-60
2022/07/19 09:18:21;;;;;;;3.08;2.60;;;28.50;99.80;;;-141.84;29.04;22887.97;5051297;28;20234;-60
2022/07/19 09:20:52;;;;;;;3.33;2.97;;;28.60;99.40;;;-141.84;28.92;22885.94;5051258;28;20236;-60
2022/07/19 09:23:21;;;;;;;3.97;2.53;;;28.50;99.30;;;-141.84;28.95;22914.41;5051622;28;20228;-61
2022/07/19 09:25:52;;;;;;;4.72;2.60;;;28.70;99.00;;;-141.84;29.09;22959.16;5051341;28;20233;-60
2022/07/19 09:28:24;;;;;;;7.53;2.92;;;28.70;99.10;;;-141.84;28.92;22953.06;5051174;28;20196;-59
2022/07/19 09:30:58;;;;;;;5.45;2.78;;;28.80;98.70;;;-141.84;28.19;23052.72;5051993;28;20200;-59
2022/07/19 09:33:28;;;;;;;5.85;2.90;;;28.90;98.30;;;-141.84;28.35;23064.94;5051019;28;20225;-61
2022/07/19 09:36:01;;;;;;;5.82;2.70;;;29.10;98.20;;;-141.84;28.72;23048.66;5050980;28;20225;-61
2022/07/19 09:38:32;;;;;;;3.35;2.63;;;29.10;98.70;;;-141.84;27.81;23111.72;5051214;28;20239;-61
2022/07/19 09:41:12;;;;;;;3.25;2.80;;;29.20;98.00;;;-141.84;28.05;23087.31;5051070;28;20232;-60
2022/07/19 09:43:53;;;;;;;2.83;2.50;;;29.20;98.10;;;-141.84;28.07;23115.78;5051044;28;20790;-60
2022/07/19 09:46:33;;;;;;;3.40;2.30;;;29.30;97.70;;;-141.84;27.85;23140.19;5051065;28;20221;-60
2022/07/19 09:49:12;;;;;;;5.35;3.00;;;29.30;97.50;;;-141.84;27.30;23209.34;5051616;28;20262;-61
2022/07/19 09:51:43;;;;;;;3.25;2.75;;;29.40;97.60;;;-141.84;27.91;23172.75;5051425;28;20209;-60
2022/07/19 09:54:14;;;;;;;3.92;3.00;;;29.40;97.50;;;-141.84;27.71;23170.72;5050721;28;20225;-61
2022/07/19 09:56:46;;;;;;;3.85;2.55;;;29.40;97.60;;;-141.84;27.65;23176.81;5050728;28;20343;-61
2022/07/19 09:59:15;;;;;;;6.10;2.90;;;29.40;97.40;;;-141.84;27.78;23211.38;5050723;28;20700;-60
2022/07/19 10:01:44;;;;;;;9.90;2.90;;;29.50;97.10;;;-141.84;27.86;23172.75;5046951;28;20693;-61
2022/07/19 10:04:15;;;;;;;4.85;2.80;;;29.60;97.10;;;-141.84;27.58;23227.66;5030818;28;20251;-60
2022/07/19 10:06:44;;;;;;;6.35;2.90;;;29.60;96.90;;;-141.84;27.56;23266.31;5031145;28;20220;-59
2022/07/19 10:09:16;;;;;;;4.78;2.80;;;29.70;96.70;;;-141.84;27.56;23311.06;5033351;28;20794;-60
2022/07/19 10:11:45;;;;;;;4.68;2.40;;;29.80;96.60;;;-141.84;27.06;23441.25;5049935;28;20221;-60
2022/07/19 10:14:15;;;;;;;5.63;2.72;;;30.10;95.80;;;-141.84;27.29;23388.38;5050328;28;20229;-60
2022/07/19 10:17:01;;;;;;;3.53;2.50;;;30.10;95.80;;;-141.84;27.03;23361.91;5050192;28;20735;-61